This is the latest recevied weather packets stored in our database for station/object KCCA. If no packets are shown the sender has not sent any weather packets the latest 1 day(s).
| Time | Temp. | Humidity | Pressure | Rain* | Wind** | Luminosity | Snow |
|---|---|---|---|---|---|---|---|
| 1778086413 | 13.89° C | 62% | 1016.3 hPa | - | - | - | - |
| 1778085809 | 13.89° C | 62% | 1016.3 hPa | - | - | - | - |
| 1778085211 | 13.89° C | 58% | 1016.6 hPa | - | - | - | - |
| 1778084610 | 13.89° C | 58% | 1016.6 hPa | - | - | - | - |
| 1778084010 | 12.78° C | 62% | 1016.9 hPa | - | - | - | - |
| 1778079208 | 10.56° C | 76% | 1016.9 hPa | - | - | - | - |
| 1778078009 | 10.56° C | 76% | 1016.9 hPa | - | - | - | - |
| 1778076806 | 10° C | 81% | 1016.6 hPa | - | - | - | - |
| 1778076207 | 10° C | 81% | 1016.6 hPa | - | - | - | - |
| 1778075006 | 10° C | 81% | 1016.6 hPa | - | - | - | - |
| 1778074404 | 10° C | 81% | 1016.6 hPa | - | - | - | - |
| 1778073806 | 10° C | 81% | 1016.6 hPa | - | - | - | - |
| 1778070806 | 8.89° C | 81% | 1014.9 hPa | - | - | - | - |
| 1778069007 | 8.89° C | 87% | 1014.6 hPa | - | - | - | - |
| 1778068408 | 8.89° C | 87% | 1013.9 hPa | - | - | - | - |
| 1778064807 | 10° C | 81% | 1013.5 hPa | - | - | - | - |
| 1778063607 | 10° C | 81% | 1012.9 hPa | - | - | - | - |
| 1778062408 | 10° C | 87% | 1011.9 hPa | - | - | - | - |
| 1778061210 | 10° C | 87% | 1012.2 hPa | - | - | - | - |
| 1778060732 | 10° C | 87% | 1012.2 hPa | - | - | - | - |
| 1778060009 | 10° C | 87% | 1012.5 hPa | - | - | - | - |
| 1778059407 | 10° C | 87% | 1012.5 hPa | - | - | - | - |
| 1778058808 | 10° C | 87% | 1012.5 hPa | - | - | - | - |
| 1778057610 | 10° C | 87% | 1012.2 hPa | - | - | - | - |
| 1778056408 | 10° C | 87% | 1011.5 hPa | - | - | - | - |
* Rain since midnight (hover to see other rain measurements)
** Current wind speed in m/s (hover to see current wind gust speed)